createdAt,value
2022-12-19T00:01:55.675Z,27.01
2022-12-19T00:04:21.952Z,27.06
2022-12-19T00:06:48.340Z,27.09
2022-12-19T00:09:14.692Z,27.08
2022-12-19T00:11:41.080Z,27.09
2022-12-19T00:14:07.472Z,27.11
2022-12-19T00:16:33.868Z,27.80
2022-12-19T00:19:00.217Z,28.86
2022-12-19T00:21:26.572Z,29.45
2022-12-19T00:23:52.962Z,29.79
2022-12-19T00:26:19.313Z,29.83
2022-12-19T00:28:45.701Z,30.09
2022-12-19T00:31:12.077Z,30.04
2022-12-19T00:33:42.587Z,30.10
2022-12-19T00:36:04.802Z,30.08
2022-12-19T00:38:31.199Z,30.02
2022-12-19T00:40:57.549Z,30.07
2022-12-19T00:43:23.946Z,30.43
2022-12-19T00:45:50.349Z,30.56
2022-12-19T00:48:16.693Z,30.62
2022-12-19T00:50:43.049Z,30.60
2022-12-19T00:53:09.437Z,30.62
2022-12-19T00:55:35.821Z,30.58
2022-12-19T00:58:02.215Z,30.58
2022-12-19T01:00:28.570Z,30.59
2022-12-19T01:02:55.074Z,30.58
2022-12-19T01:05:21.305Z,30.59
2022-12-19T01:07:47.697Z,30.63
2022-12-19T01:10:14.043Z,30.63
2022-12-19T01:12:40.443Z,30.62
2022-12-19T01:15:06.792Z,30.66
2022-12-19T01:17:33.182Z,30.62
2022-12-19T01:19:59.528Z,30.64
2022-12-19T01:22:25.919Z,30.68
2022-12-19T01:24:52.267Z,30.65
2022-12-19T01:27:18.655Z,30.69
2022-12-19T01:29:52.441Z,30.67
2022-12-19T01:32:11.413Z,30.67
2022-12-19T01:34:37.761Z,30.67
2022-12-19T01:37:04.178Z,30.70
2022-12-19T01:39:30.524Z,30.69
2022-12-19T01:41:56.924Z,30.70
2022-12-19T01:44:23.269Z,30.73
2022-12-19T01:46:49.664Z,30.70
2022-12-19T01:49:16.005Z,30.66
2022-12-19T01:51:42.430Z,30.62
2022-12-19T01:54:08.774Z,30.67
2022-12-19T01:56:35.145Z,30.69
2022-12-19T01:59:05.697Z,30.75
2022-12-19T02:01:28.098Z,30.73
2022-12-19T02:03:54.268Z,30.71
2022-12-19T02:06:20.696Z,30.67
2022-12-19T02:08:47.050Z,30.75
2022-12-19T02:11:13.435Z,30.75
2022-12-19T02:13:39.822Z,30.72
2022-12-19T02:16:06.265Z,30.70
2022-12-19T02:18:32.567Z,30.76
2022-12-19T02:20:58.970Z,30.80
2022-12-19T02:23:25.321Z,30.78
2022-12-19T02:25:51.947Z,30.75
2022-12-19T02:28:18.087Z,30.71
2022-12-19T02:30:44.482Z,30.67
2022-12-19T02:33:10.829Z,30.73
2022-12-19T02:35:37.232Z,30.75
2022-12-19T02:38:03.661Z,30.75
2022-12-19T02:40:30.028Z,30.80
2022-12-19T02:42:56.382Z,30.81
2022-12-19T02:45:28.750Z,30.85
2022-12-19T02:47:49.129Z,30.77
2022-12-19T02:50:15.521Z,30.84
2022-12-19T02:52:41.881Z,30.81
2022-12-19T02:55:08.299Z,30.83
2022-12-19T02:57:34.648Z,30.89
2022-12-19T03:00:01.055Z,30.84
2022-12-19T03:02:27.652Z,30.80
2022-12-19T03:04:53.816Z,30.87
2022-12-19T03:07:20.166Z,30.91
2022-12-19T03:09:46.554Z,30.88
2022-12-19T03:12:17.312Z,30.83
2022-12-19T03:14:39.306Z,30.79
2022-12-19T03:17:05.804Z,30.75
2022-12-19T03:19:33.495Z,30.67
2022-12-19T03:21:58.650Z,30.60
2022-12-19T03:24:25.047Z,30.48
2022-12-19T03:26:51.389Z,30.33
2022-12-19T03:29:17.787Z,30.29
2022-12-19T03:31:44.180Z,30.30
2022-12-19T03:34:10.550Z,30.05
2022-12-19T03:36:36.900Z,29.94
2022-12-19T03:39:03.315Z,29.82
2022-12-19T03:41:29.666Z,29.69
2022-12-19T03:43:56.051Z,29.58
2022-12-19T03:46:22.434Z,29.47
2022-12-19T03:48:48.814Z,29.31
2022-12-19T03:51:15.174Z,29.24
2022-12-19T03:53:41.577Z,29.16
2022-12-19T03:56:07.920Z,29.02
2022-12-19T03:58:34.333Z,28.92
2022-12-19T04:01:00.760Z,28.86
2022-12-19T04:03:27.124Z,28.80
2022-12-19T04:05:53.440Z,28.76
2022-12-19T04:08:19.864Z,28.68
2022-12-19T04:10:46.209Z,28.56
2022-12-19T04:13:12.616Z,28.47
2022-12-19T04:15:39.024Z,28.39
2022-12-19T04:18:05.389Z,28.36
2022-12-19T04:20:31.737Z,28.24
2022-12-19T04:22:58.155Z,28.25
2022-12-19T04:25:29.180Z,28.19
2022-12-19T04:27:50.978Z,28.04
2022-12-19T04:30:17.278Z,28.03
2022-12-19T04:32:43.747Z,27.95
2022-12-19T04:35:10.084Z,27.88
2022-12-19T04:37:36.471Z,27.88
2022-12-19T04:40:02.837Z,27.83
2022-12-19T04:42:29.221Z,27.75
2022-12-19T04:44:55.570Z,27.79
2022-12-19T04:47:21.967Z,27.68
2022-12-19T04:49:48.363Z,27.63
2022-12-19T04:52:14.831Z,27.63
2022-12-19T04:54:41.183Z,27.61
2022-12-19T04:57:07.578Z,27.61
2022-12-19T04:59:33.932Z,27.54
2022-12-19T05:02:00.474Z,27.50
2022-12-19T05:04:26.661Z,27.60
2022-12-19T05:06:53.065Z,27.93
2022-12-19T05:09:19.408Z,27.44
2022-12-19T05:11:45.791Z,27.31
2022-12-19T05:14:12.131Z,27.56
2022-12-19T05:16:38.529Z,28.14
2022-12-19T05:19:04.867Z,28.71
2022-12-19T05:21:31.255Z,28.80
2022-12-19T05:23:57.627Z,29.08
2022-12-19T05:26:24.013Z,28.80
2022-12-19T05:28:50.356Z,28.82
2022-12-19T05:31:16.781Z,28.33
2022-12-19T05:33:43.096Z,28.08
2022-12-19T05:36:09.505Z,28.00
2022-12-19T05:38:35.848Z,27.86
2022-12-19T05:41:02.242Z,27.44
2022-12-19T05:43:28.587Z,27.31
2022-12-19T05:45:54.977Z,27.32
2022-12-19T05:48:21.325Z,27.21
2022-12-19T05:50:47.716Z,27.23
2022-12-19T05:53:14.081Z,27.27
2022-12-19T05:55:40.500Z,27.42
2022-12-19T05:58:06.813Z,27.54
2022-12-19T06:00:33.289Z,27.70
2022-12-19T06:02:59.786Z,27.71
2022-12-19T06:05:26.039Z,27.62
2022-12-19T06:07:52.415Z,27.74
2022-12-19T06:10:18.785Z,27.54
2022-12-19T06:12:45.139Z,27.51
2022-12-19T06:15:11.554Z,27.67
2022-12-19T06:17:37.899Z,27.75
2022-12-19T06:20:04.308Z,27.70
2022-12-19T06:22:30.652Z,27.67
2022-12-19T06:24:57.069Z,27.44
2022-12-19T06:27:23.429Z,27.25
2022-12-19T06:29:49.801Z,27.21
2022-12-19T06:32:16.149Z,27.22
2022-12-19T06:37:08.901Z,27.41
2022-12-19T06:39:35.304Z,27.55
2022-12-19T06:42:01.660Z,27.47
2022-12-19T06:44:28.058Z,27.44
2022-12-19T06:46:54.406Z,27.65
2022-12-19T06:49:20.800Z,27.41
2022-12-19T06:51:47.144Z,27.18
2022-12-19T06:54:13.568Z,27.31
2022-12-19T06:56:39.912Z,26.96
2022-12-19T06:59:06.306Z,27.01
2022-12-19T07:01:32.759Z,26.97
2022-12-19T07:03:59.066Z,26.99
2022-12-19T07:06:25.411Z,27.04
2022-12-19T07:08:51.846Z,27.03
2022-12-19T07:11:18.163Z,27.01
2022-12-19T07:13:44.587Z,26.88
2022-12-19T07:16:10.995Z,26.83
2022-12-19T07:18:37.308Z,27.02
2022-12-19T07:21:03.677Z,27.12
2022-12-19T07:23:30.137Z,27.08
2022-12-19T07:25:56.447Z,27.23
2022-12-19T07:28:22.855Z,27.34
2022-12-19T07:30:49.221Z,27.34
2022-12-19T07:33:21.061Z,27.28
2022-12-19T07:35:41.996Z,27.15
2022-12-19T07:38:08.392Z,26.99
2022-12-19T07:40:34.720Z,27.10
2022-12-19T07:43:01.141Z,27.08
2022-12-19T07:45:27.513Z,27.05
2022-12-19T07:47:53.914Z,27.21
2022-12-19T07:50:20.288Z,27.21
2022-12-19T07:52:46.767Z,27.07
2022-12-19T07:55:13.109Z,26.91
2022-12-19T07:57:39.525Z,26.86
2022-12-19T08:00:05.879Z,26.93
2022-12-19T08:02:32.353Z,27.04
2022-12-19T08:04:58.649Z,27.01
2022-12-19T08:07:25.057Z,27.15
2022-12-19T08:09:51.403Z,27.09
2022-12-19T08:12:17.811Z,27.15
2022-12-19T08:14:44.164Z,27.42
2022-12-19T08:17:20.424Z,27.46
2022-12-19T08:19:36.980Z,27.39
2022-12-19T08:22:03.356Z,27.30
2022-12-19T08:24:29.716Z,27.45
2022-12-19T08:26:56.117Z,27.20
2022-12-19T08:29:22.472Z,27.22
2022-12-19T08:31:48.892Z,27.05
2022-12-19T08:34:15.258Z,27.13
2022-12-19T08:36:41.650Z,27.06
2022-12-19T08:39:08.035Z,26.70
2022-12-19T08:41:34.446Z,26.90
2022-12-19T08:44:00.803Z,26.96
2022-12-19T08:46:27.250Z,27.05
2022-12-19T08:48:53.573Z,26.89
2022-12-19T08:51:19.976Z,27.06
2022-12-19T08:53:46.354Z,26.85
2022-12-19T08:56:12.737Z,26.76
2022-12-19T08:58:39.092Z,26.89
2022-12-19T09:01:06.016Z,26.95
2022-12-19T09:03:42.697Z,27.01
2022-12-19T09:06:07.928Z,26.95
2022-12-19T09:08:24.693Z,27.21
2022-12-19T09:10:51.050Z,27.21
2022-12-19T09:13:17.408Z,26.99
2022-12-19T09:15:43.791Z,27.12
2022-12-19T09:18:10.144Z,27.08
2022-12-19T09:20:36.563Z,26.85
2022-12-19T09:23:02.902Z,26.76
2022-12-19T09:25:29.288Z,26.73
2022-12-19T09:30:25.053Z,26.74
2022-12-19T09:32:51.404Z,26.90
2022-12-19T09:35:17.788Z,26.97
2022-12-19T09:37:44.155Z,26.93
2022-12-19T09:40:10.591Z,27.07
2022-12-19T09:42:40.548Z,27.01
2022-12-19T09:45:03.396Z,26.92
2022-12-19T09:47:29.756Z,26.74
2022-12-19T09:49:56.169Z,26.73
2022-12-19T09:52:22.670Z,26.76
2022-12-19T09:54:49.085Z,26.72
2022-12-19T09:57:15.423Z,26.45
2022-12-19T09:59:47.907Z,26.44
2022-12-19T10:02:08.410Z,26.45
2022-12-19T10:04:34.691Z,26.43
2022-12-19T10:07:18.500Z,26.53
2022-12-19T10:11:02.397Z,26.47
2022-12-19T10:12:39.023Z,26.35
2022-12-19T10:14:20.139Z,26.48
2022-12-19T10:17:08.538Z,26.44
2022-12-19T10:19:12.901Z,26.47
2022-12-19T10:24:05.662Z,26.70
2022-12-19T10:26:32.006Z,26.75
2022-12-19T10:28:58.445Z,26.79
2022-12-19T10:31:24.810Z,26.86
2022-12-19T10:33:51.155Z,26.71
2022-12-19T10:36:17.505Z,26.77
2022-12-19T10:38:51.368Z,26.77
2022-12-19T10:41:12.735Z,26.76
2022-12-19T10:43:44.038Z,26.63
2022-12-19T10:46:05.589Z,26.56
2022-12-19T10:48:31.899Z,26.42
2022-12-19T10:50:58.299Z,26.45
2022-12-19T10:53:24.664Z,26.43
2022-12-19T10:55:51.039Z,26.56
2022-12-19T10:58:17.370Z,26.60
2022-12-19T11:00:43.760Z,26.75
2022-12-19T11:03:10.306Z,27.02
2022-12-19T11:05:36.709Z,26.79
2022-12-19T11:08:02.992Z,26.81
2022-12-19T11:10:56.226Z,26.87
2022-12-19T11:18:17.818Z,26.70
2022-12-19T11:21:05.515Z,26.70
2022-12-19T11:27:16.208Z,26.71
2022-12-19T11:29:16.836Z,26.91
2022-12-19T11:29:32.462Z,26.96
2022-12-19T11:30:48.366Z,26.94
2022-12-19T11:30:49.024Z,26.99
2022-12-19T11:32:44.988Z,27.02
2022-12-19T11:34:53.563Z,27.04
2022-12-19T11:37:19.913Z,26.98
2022-12-19T11:39:46.317Z,26.89
2022-12-19T11:42:12.999Z,26.70
2022-12-19T11:44:39.456Z,26.82
2022-12-19T11:47:05.786Z,26.70
2022-12-19T11:49:32.450Z,26.79
2022-12-19T11:51:58.758Z,26.93
2022-12-19T11:54:25.168Z,26.95
2022-12-19T11:56:51.519Z,26.89
2022-12-19T11:59:17.958Z,27.05
2022-12-19T12:01:44.386Z,27.24
2022-12-19T12:04:10.805Z,27.15
2022-12-19T12:06:37.932Z,27.06
2022-12-19T12:11:09.567Z,26.94
2022-12-19T12:16:13.578Z,26.95
2022-12-19T12:27:59.892Z,26.84
2022-12-19T12:29:45.771Z,26.59
2022-12-19T12:31:08.219Z,26.46
2022-12-19T12:31:28.856Z,26.54
2022-12-19T12:31:55.167Z,26.50
2022-12-19T12:31:56.859Z,26.80
2022-12-19T12:31:57.583Z,26.57
2022-12-19T12:35:46.567Z,26.73
2022-12-19T12:35:56.306Z,26.92
2022-12-19T12:38:26.344Z,26.69
2022-12-19T12:40:46.649Z,26.85
2022-12-19T12:43:13.100Z,27.06
2022-12-19T12:45:39.503Z,27.20
2022-12-19T12:48:05.836Z,27.02
2022-12-19T12:50:32.185Z,27.24
2022-12-19T12:52:58.591Z,27.10
2022-12-19T12:55:25.007Z,26.86
2022-12-19T12:57:51.403Z,26.89
2022-12-19T13:00:17.767Z,26.66
2022-12-19T13:02:44.235Z,26.60
2022-12-19T13:05:10.509Z,26.66
2022-12-19T13:07:36.991Z,26.64
2022-12-19T13:10:03.331Z,26.79
2022-12-19T13:12:29.750Z,26.92
2022-12-19T13:14:56.110Z,27.04
2022-12-19T13:17:22.560Z,27.15
2022-12-19T13:19:48.901Z,26.78
2022-12-19T13:22:15.331Z,27.01
2022-12-19T13:24:41.692Z,27.08
2022-12-19T13:27:08.120Z,27.03
2022-12-19T13:29:34.493Z,26.89
2022-12-19T13:32:00.938Z,26.83
2022-12-19T13:34:27.249Z,26.69
2022-12-19T13:39:50.749Z,26.71
2022-12-19T13:40:00.638Z,26.81
2022-12-19T13:41:46.434Z,26.79
2022-12-19T13:44:12.781Z,26.78
2022-12-19T13:46:39.700Z,26.75
2022-12-19T13:49:06.011Z,26.83
2022-12-19T13:51:32.411Z,26.89
2022-12-19T13:54:00.117Z,26.84
2022-12-19T13:56:25.246Z,26.91
2022-12-19T13:58:51.590Z,27.02
2022-12-19T14:01:21.233Z,26.89
2022-12-19T14:03:44.486Z,26.83
2022-12-19T14:06:16.719Z,26.77
2022-12-19T14:08:37.213Z,26.86
2022-12-19T14:11:39.297Z,26.88
2022-12-19T14:13:53.368Z,26.70
2022-12-19T14:15:56.431Z,26.76
2022-12-19T14:18:43.372Z,26.89
2022-12-19T14:22:04.004Z,26.86
2022-12-19T14:23:15.597Z,26.99
2022-12-19T14:28:14.449Z,26.94
2022-12-19T14:28:20.206Z,26.67
2022-12-19T14:30:34.739Z,26.65
2022-12-19T14:33:45.774Z,26.42
2022-12-19T14:36:10.320Z,26.31
2022-12-19T14:39:20.085Z,26.40
2022-12-19T14:40:20.151Z,26.52
2022-12-19T14:43:57.519Z,26.78
2022-12-19T14:54:01.704Z,26.60
2022-12-19T14:54:17.516Z,26.47
2022-12-19T14:54:33.975Z,26.52
2022-12-19T14:54:40.348Z,26.51
2022-12-19T14:57:50.592Z,26.83
2022-12-19T14:59:51.199Z,26.78
2022-12-19T15:02:30.656Z,26.71
2022-12-19T15:04:50.229Z,26.72
2022-12-19T15:07:12.121Z,26.85
2022-12-19T15:11:00.907Z,26.73
2022-12-19T15:12:56.509Z,26.86
2022-12-19T15:14:55.377Z,26.67
2022-12-19T15:16:55.803Z,26.54
2022-12-19T15:19:22.198Z,26.83
2022-12-19T15:21:48.550Z,26.94
2022-12-19T15:24:14.948Z,26.55
2022-12-19T15:26:41.305Z,26.22
2022-12-19T15:29:07.705Z,25.96
2022-12-19T15:31:34.092Z,25.99
2022-12-19T15:34:33.153Z,25.45
2022-12-19T15:36:26.791Z,24.96
2022-12-19T15:38:53.160Z,24.72
2022-12-19T15:41:19.523Z,24.90
2022-12-19T15:46:12.393Z,24.49
2022-12-19T15:48:38.634Z,24.44
2022-12-19T15:51:04.989Z,24.35
2022-12-19T15:53:40.361Z,24.29
2022-12-19T15:55:57.740Z,24.17
2022-12-19T15:58:24.124Z,24.23
2022-12-19T16:00:50.502Z,24.25
2022-12-19T16:03:25.437Z,24.21
2022-12-19T16:05:43.270Z,24.19
2022-12-19T16:08:09.649Z,24.19
2022-12-19T16:10:35.984Z,24.18
2022-12-19T16:13:02.378Z,24.16
2022-12-19T16:15:28.725Z,24.17
2022-12-19T16:17:55.118Z,24.16
2022-12-19T16:20:21.477Z,24.22
2022-12-19T16:22:47.871Z,24.25
2022-12-19T16:25:14.228Z,24.22
2022-12-19T16:27:40.608Z,24.26
2022-12-19T16:30:06.953Z,24.18
2022-12-19T16:32:33.353Z,24.13
2022-12-19T16:34:59.723Z,24.07
2022-12-19T16:37:32.042Z,23.94
2022-12-19T16:39:52.465Z,23.93
2022-12-19T16:42:18.853Z,24.01
2022-12-19T16:44:45.213Z,24.04
2022-12-19T16:47:11.658Z,24.05
2022-12-19T16:49:38.011Z,24.03
2022-12-19T16:52:04.414Z,24.03
2022-12-19T16:54:30.758Z,23.97
2022-12-19T16:56:57.152Z,23.93
2022-12-19T16:59:23.510Z,23.93
2022-12-19T17:01:50.086Z,23.89
2022-12-19T17:04:16.270Z,23.87
2022-12-19T17:06:42.662Z,24.05
2022-12-19T17:09:09.005Z,24.02
2022-12-19T17:11:35.425Z,24.05
2022-12-19T17:14:01.765Z,23.99
2022-12-19T17:16:28.218Z,23.90
2022-12-19T17:18:54.539Z,23.78
2022-12-19T17:21:20.916Z,23.79
2022-12-19T17:23:47.286Z,23.85
2022-12-19T17:26:17.708Z,23.87
2022-12-19T17:28:40.054Z,23.87
2022-12-19T17:31:06.519Z,23.89
2022-12-19T17:33:32.800Z,23.92
2022-12-19T17:35:59.226Z,23.95
2022-12-19T17:38:25.586Z,23.95
2022-12-19T17:40:51.991Z,23.99
2022-12-19T17:43:18.503Z,23.93
2022-12-19T17:45:44.964Z,24.09
2022-12-19T17:48:11.244Z,24.06
2022-12-19T17:50:37.656Z,23.83
2022-12-19T17:53:03.948Z,23.80
2022-12-19T17:55:30.374Z,23.90
2022-12-19T17:57:56.688Z,23.88
2022-12-19T18:00:29.913Z,23.67
2022-12-19T18:02:49.499Z,23.73
2022-12-19T18:05:15.815Z,23.86
2022-12-19T18:07:42.167Z,24.11
2022-12-19T18:10:08.575Z,24.16
2022-12-19T18:15:15.252Z,24.35
2022-12-19T18:17:41.642Z,24.32
2022-12-19T18:20:08.000Z,24.50
2022-12-19T18:22:34.382Z,24.49
2022-12-19T18:25:00.721Z,24.42
2022-12-19T18:27:27.116Z,24.37
2022-12-19T18:29:53.462Z,24.44
2022-12-19T18:32:19.845Z,24.45
2022-12-19T18:34:46.178Z,24.47
2022-12-19T18:37:12.646Z,24.56
2022-12-19T18:39:38.956Z,24.21
2022-12-19T18:42:05.344Z,24.14
2022-12-19T18:44:31.727Z,24.12
2022-12-19T18:46:58.138Z,24.22
2022-12-19T18:49:24.471Z,24.28
2022-12-19T18:51:50.887Z,24.34
2022-12-19T18:54:17.289Z,24.28
2022-12-19T18:56:43.598Z,24.32
2022-12-19T18:59:09.945Z,24.32
2022-12-19T19:01:36.485Z,24.35
2022-12-19T19:04:02.732Z,24.24
2022-12-19T19:06:29.103Z,24.16
2022-12-19T19:08:55.422Z,24.05
2022-12-19T19:11:21.823Z,24.08
2022-12-19T19:13:48.146Z,24.11
2022-12-19T19:16:14.527Z,24.25
2022-12-19T19:18:40.865Z,24.11
2022-12-19T19:21:07.261Z,24.03
2022-12-19T19:23:33.633Z,24.01
2022-12-19T19:25:59.981Z,23.96
2022-12-19T19:28:26.339Z,23.93
2022-12-19T19:30:52.755Z,23.92
2022-12-19T19:33:19.051Z,23.91
2022-12-19T19:35:45.451Z,23.84
2022-12-19T19:38:11.806Z,23.76
2022-12-19T19:40:38.205Z,23.87
2022-12-19T19:43:04.554Z,23.92
2022-12-19T19:45:30.939Z,24.01
2022-12-19T19:47:57.314Z,24.02
2022-12-19T19:50:23.708Z,24.03
2022-12-19T19:52:50.049Z,23.99
2022-12-19T19:55:16.428Z,24.03
2022-12-19T19:57:42.781Z,23.98
2022-12-19T20:00:09.173Z,24.07
2022-12-19T20:02:35.755Z,24.08
2022-12-19T20:05:01.897Z,24.10
2022-12-19T20:07:28.244Z,24.11
2022-12-19T20:09:54.654Z,24.11
2022-12-19T20:12:20.992Z,24.16
2022-12-19T20:14:47.359Z,24.13
2022-12-19T20:17:13.699Z,24.09
2022-12-19T20:19:40.084Z,24.07
2022-12-19T20:22:06.423Z,24.08
2022-12-19T20:24:32.865Z,24.17
2022-12-19T20:26:59.205Z,24.67
2022-12-19T20:29:25.611Z,24.37
2022-12-19T20:31:52.020Z,24.24
2022-12-19T20:34:18.336Z,24.18
2022-12-19T20:36:44.670Z,24.22
2022-12-19T20:39:11.094Z,24.19
2022-12-19T20:41:37.416Z,24.15
2022-12-19T20:44:03.802Z,24.24
2022-12-19T20:46:30.201Z,24.25
2022-12-19T20:48:56.526Z,24.23
2022-12-19T20:51:22.881Z,24.23
2022-12-19T20:53:49.266Z,24.24
2022-12-19T20:56:15.625Z,24.32
2022-12-19T20:58:42.036Z,24.30
2022-12-19T21:01:08.406Z,24.28
2022-12-19T21:03:34.898Z,24.30
2022-12-19T21:06:01.111Z,24.33
2022-12-19T21:08:27.451Z,24.41
2022-12-19T21:10:53.848Z,24.37
2022-12-19T21:13:20.192Z,24.40
2022-12-19T21:15:46.603Z,24.40
2022-12-19T21:18:12.920Z,24.40
2022-12-19T21:20:39.317Z,24.41
2022-12-19T21:23:05.664Z,24.48
2022-12-19T21:25:32.040Z,24.48
2022-12-19T21:27:58.388Z,24.49
2022-12-19T21:30:24.762Z,24.51
2022-12-19T21:32:51.115Z,24.57
2022-12-19T21:35:17.496Z,24.60
2022-12-19T21:37:43.970Z,24.64
2022-12-19T21:40:10.252Z,24.62
2022-12-19T21:42:36.580Z,24.67
2022-12-19T21:45:02.953Z,24.74
2022-12-19T21:47:29.302Z,24.80
2022-12-19T21:49:55.689Z,24.85
2022-12-19T21:52:22.032Z,24.87
2022-12-19T21:54:48.420Z,24.94
2022-12-19T21:57:14.763Z,24.99
2022-12-19T21:59:41.153Z,25.03
2022-12-19T22:02:07.655Z,25.07
2022-12-19T22:04:33.875Z,25.15
2022-12-19T22:07:00.214Z,25.17
2022-12-19T22:09:26.606Z,25.19
2022-12-19T22:11:52.953Z,25.20
2022-12-19T22:14:19.333Z,25.26
2022-12-19T22:16:45.775Z,25.36
2022-12-19T22:19:12.082Z,25.30
2022-12-19T22:21:38.411Z,25.40
2022-12-19T22:24:04.811Z,25.41
2022-12-19T22:26:31.164Z,25.41
2022-12-19T22:28:57.550Z,25.42
2022-12-19T22:31:23.934Z,25.47
2022-12-19T22:33:50.271Z,25.54
2022-12-19T22:36:21.007Z,25.54
2022-12-19T22:38:44.686Z,25.54
2022-12-19T22:41:09.356Z,25.59
2022-12-19T22:43:35.754Z,25.70
2022-12-19T22:46:02.129Z,25.67
2022-12-19T22:48:28.477Z,25.66
2022-12-19T22:50:54.820Z,25.73
2022-12-19T22:53:21.209Z,25.78
2022-12-19T22:55:47.565Z,25.76
2022-12-19T22:58:13.943Z,25.83
2022-12-19T23:00:40.322Z,25.79
2022-12-19T23:03:06.923Z,25.86
2022-12-19T23:05:33.079Z,25.90
2022-12-19T23:07:59.476Z,25.89
2022-12-19T23:10:25.825Z,25.96
2022-12-19T23:12:52.239Z,26.01
2022-12-19T23:15:18.566Z,25.98
2022-12-19T23:17:45.029Z,26.02
2022-12-19T23:20:11.383Z,26.02
2022-12-19T23:22:37.761Z,26.07
2022-12-19T23:25:04.110Z,26.12
2022-12-19T23:27:30.498Z,26.09
2022-12-19T23:29:56.855Z,26.15
2022-12-19T23:32:23.328Z,26.15
2022-12-19T23:34:49.583Z,26.20
2022-12-19T23:37:15.978Z,26.22
2022-12-19T23:39:42.313Z,26.25
2022-12-19T23:42:08.954Z,26.31
2022-12-19T23:44:35.076Z,26.38
2022-12-19T23:47:03.894Z,26.40
2022-12-19T23:49:27.829Z,26.38
2022-12-19T23:51:54.211Z,26.39
2022-12-19T23:54:20.545Z,26.43
2022-12-19T23:56:46.942Z,26.50
2022-12-19T23:59:13.281Z,26.56
